createdAt,value
2022-09-28T00:02:35.843Z,12.90
2022-09-28T00:08:10.880Z,13.00
2022-09-28T00:11:02.905Z,12.90
2022-09-28T00:13:56.630Z,12.90
2022-09-28T00:16:48.707Z,12.90
2022-09-28T00:19:40.254Z,12.90
2022-09-28T00:22:31.557Z,12.90
2022-09-28T00:28:00.806Z,12.80
2022-09-28T00:30:57.098Z,12.80
2022-09-28T00:33:51.747Z,12.70
2022-09-28T00:36:46.835Z,12.80
2022-09-28T00:39:40.686Z,12.90
2022-09-28T00:42:32.604Z,12.90
2022-09-28T00:45:26.960Z,12.90
2022-09-28T00:48:18.225Z,12.90
2022-09-28T00:53:50.477Z,12.80
2022-09-28T00:56:44.289Z,12.80
2022-09-28T00:59:36.468Z,12.80
2022-09-28T01:05:10.696Z,12.60
2022-09-28T01:08:03.442Z,12.60
2022-09-28T01:10:55.003Z,12.70
2022-09-28T01:13:47.530Z,12.70
2022-09-28T01:16:42.165Z,12.70
2022-09-28T01:20:04.547Z,12.70
2022-09-28T01:23:27.771Z,12.70
2022-09-28T01:26:47.808Z,12.60
2022-09-28T01:29:48.460Z,12.70
2022-09-28T01:35:22.687Z,12.40
2022-09-28T01:38:17.394Z,12.40
2022-09-28T01:43:52.233Z,12.40
2022-09-28T01:46:45.841Z,12.40
2022-09-28T01:49:42.941Z,12.50
2022-09-28T01:57:59.878Z,12.60
2022-09-28T02:00:54.248Z,12.60
2022-09-28T02:03:49.656Z,12.60
2022-09-28T02:06:45.631Z,12.60
2022-09-28T02:09:40.134Z,12.60
2022-09-28T02:12:34.371Z,12.60
2022-09-28T02:15:29.590Z,12.50
2022-09-28T02:18:21.368Z,12.50
2022-09-28T02:21:15.861Z,12.40
2022-09-28T02:24:10.512Z,12.50
2022-09-28T02:29:54.084Z,12.40
2022-09-28T02:35:24.668Z,12.30
2022-09-28T02:38:16.449Z,12.30
2022-09-28T02:43:53.613Z,12.10
2022-09-28T02:49:31.324Z,12.00
2022-09-28T02:52:32.062Z,12.10
2022-09-28T02:55:28.350Z,12.20
2022-09-28T02:58:28.196Z,12.30
2022-09-28T03:01:23.352Z,12.30
2022-09-28T03:04:19.694Z,12.20
2022-09-28T03:07:14.216Z,12.20
2022-09-28T03:10:09.600Z,12.20
2022-09-28T03:13:02.314Z,12.20
2022-09-28T03:15:53.644Z,12.30
2022-09-28T03:18:46.031Z,12.30
2022-09-28T03:21:38.008Z,12.30
2022-09-28T03:24:30.513Z,12.40
2022-09-28T03:27:21.919Z,12.40
2022-09-28T03:33:03.201Z,12.50
2022-09-28T03:35:55.014Z,12.50
2022-09-28T03:38:46.874Z,12.40
2022-09-28T03:41:38.347Z,12.40
2022-09-28T03:44:29.666Z,12.40
2022-09-28T03:47:21.516Z,12.40
2022-09-28T03:50:12.891Z,12.40
2022-09-28T03:53:07.320Z,12.40
2022-09-28T03:56:01.320Z,12.50
2022-09-28T03:58:52.910Z,12.40
2022-09-28T04:01:44.514Z,12.40
2022-09-28T04:04:36.431Z,12.40
2022-09-28T04:07:30.922Z,12.30
2022-09-28T04:10:20.278Z,12.30
2022-09-28T04:13:11.674Z,12.20
2022-09-28T04:16:05.249Z,12.10
2022-09-28T04:18:59.923Z,12.00
2022-09-28T04:21:58.872Z,12.00
2022-09-28T04:24:50.641Z,12.10
2022-09-28T04:27:59.773Z,12.20
2022-09-28T04:30:51.800Z,12.30
2022-09-28T04:33:43.907Z,12.10
2022-09-28T04:39:15.604Z,12.20
2022-09-28T04:42:09.806Z,12.20
2022-09-28T04:45:04.135Z,12.20
2022-09-28T04:47:57.012Z,12.20
2022-09-28T04:50:56.437Z,12.10
2022-09-28T04:53:47.700Z,12.20
2022-09-28T04:56:38.894Z,12.30
2022-09-28T04:59:41.274Z,12.30
2022-09-28T05:02:33.249Z,12.30
2022-09-28T05:05:46.659Z,12.30
2022-09-28T05:08:42.261Z,12.30
2022-09-28T05:11:34.170Z,12.20
2022-09-28T05:14:26.531Z,12.30
2022-09-28T05:17:18.085Z,12.30
2022-09-28T05:20:26.291Z,12.20
2022-09-28T05:23:18.179Z,12.30
2022-09-28T05:28:48.041Z,12.30
2022-09-28T05:31:49.819Z,12.30
2022-09-28T05:34:51.700Z,12.30
2022-09-28T05:40:23.925Z,12.30
2022-09-28T05:43:15.282Z,12.20
2022-09-28T05:46:08.288Z,12.20
2022-09-28T05:49:01.234Z,12.30
2022-09-28T05:51:52.770Z,12.20
2022-09-28T05:54:44.686Z,12.10
2022-09-28T05:57:36.384Z,12.10
2022-09-28T06:03:13.343Z,12.30
2022-09-28T06:06:05.178Z,12.30
2022-09-28T06:08:56.539Z,12.30
2022-09-28T06:14:37.597Z,12.40
2022-09-28T06:17:28.886Z,12.40
2022-09-28T06:20:41.033Z,12.50
2022-09-28T06:23:40.742Z,12.40
2022-09-28T06:26:34.248Z,12.10
2022-09-28T06:29:25.481Z,12.20
2022-09-28T06:32:17.265Z,12.20
2022-09-28T06:35:10.776Z,12.20
2022-09-28T06:38:03.066Z,12.20
2022-09-28T06:43:35.209Z,12.20
2022-09-28T06:46:44.267Z,12.20
2022-09-28T06:49:46.262Z,12.30
2022-09-28T06:52:42.532Z,12.40
2022-09-28T06:55:36.002Z,12.50
2022-09-28T06:58:28.314Z,12.60
2022-09-28T07:01:21.471Z,12.60
2022-09-28T07:04:17.014Z,12.60
2022-09-28T07:07:27.303Z,12.60
2022-09-28T07:10:36.412Z,12.70
2022-09-28T07:13:48.730Z,12.70
2022-09-28T07:16:29.201Z,12.70
2022-09-28T07:19:18.435Z,12.80
2022-09-28T07:22:18.795Z,12.80
2022-09-28T07:25:09.908Z,12.80
2022-09-28T07:28:03.841Z,12.90
2022-09-28T07:33:39.886Z,13.20
2022-09-28T07:36:41.547Z,13.20
2022-09-28T07:39:34.739Z,13.30
2022-09-28T07:42:29.595Z,13.30
2022-09-28T07:45:23.592Z,13.30
2022-09-28T07:48:16.220Z,13.40
2022-09-28T07:51:28.573Z,13.40
2022-09-28T07:54:27.578Z,13.50
2022-09-28T08:00:09.058Z,13.70
2022-09-28T08:03:07.883Z,13.70
2022-09-28T08:06:01.712Z,13.80
2022-09-28T08:08:54.709Z,13.70
2022-09-28T08:11:47.532Z,13.70
2022-09-28T08:14:51.163Z,13.90
2022-09-28T08:17:51.727Z,14.00
2022-09-28T08:21:02.722Z,14.10
2022-09-28T08:23:54.946Z,14.30
2022-09-28T08:26:49.782Z,14.50
2022-09-28T08:29:42.794Z,14.60
2022-09-28T08:32:38.692Z,14.50
2022-09-28T08:40:55.839Z,14.40
2022-09-28T08:44:04.597Z,14.40
2022-09-28T08:47:00.739Z,14.30
2022-09-28T08:50:01.780Z,14.20
2022-09-28T08:55:37.001Z,14.30
2022-09-28T08:58:32.703Z,14.30
2022-09-28T09:01:27.590Z,14.40
2022-09-28T09:04:19.882Z,14.60
2022-09-28T09:07:56.379Z,14.60
2022-09-28T09:13:45.772Z,14.50
2022-09-28T09:16:49.421Z,14.50
2022-09-28T09:20:02.542Z,14.50
2022-09-28T09:23:00.857Z,14.50
2022-09-28T09:25:55.877Z,14.80
2022-09-28T09:29:10.112Z,15.00
2022-09-28T09:32:18.352Z,15.20
2022-09-28T09:35:28.698Z,15.40
2022-09-28T09:41:42.981Z,15.60
2022-09-28T09:47:38.928Z,15.50
2022-09-28T09:50:35.122Z,15.60
2022-09-28T09:53:32.717Z,15.60
2022-09-28T09:56:26.039Z,15.50
2022-09-28T09:59:25.438Z,15.40
2022-09-28T10:02:26.398Z,15.20
2022-09-28T10:05:23.527Z,15.30
2022-09-28T10:08:19.386Z,15.40
2022-09-28T10:11:14.456Z,15.40
2022-09-28T10:14:08.430Z,15.40
2022-09-28T10:17:02.911Z,15.40
2022-09-28T10:20:17.400Z,15.40
2022-09-28T10:23:16.840Z,15.40
2022-09-28T10:26:11.536Z,15.30
2022-09-28T10:29:05.245Z,15.20
2022-09-28T10:31:57.094Z,15.10
2022-09-28T10:34:51.056Z,15.00
2022-09-28T10:40:48.118Z,14.90
2022-09-28T10:43:46.573Z,15.00
2022-09-28T10:46:37.798Z,14.90
2022-09-28T10:49:35.160Z,14.80
2022-09-28T10:52:41.820Z,14.80
2022-09-28T10:55:37.158Z,14.80
2022-09-28T10:58:33.195Z,14.90
2022-09-28T11:01:28.954Z,15.00
2022-09-28T11:04:23.601Z,15.20
2022-09-28T11:07:20.477Z,15.40
2022-09-28T11:10:20.353Z,15.50
2022-09-28T11:13:13.004Z,15.60
2022-09-28T11:16:05.818Z,15.70
2022-09-28T11:19:00.264Z,15.70
2022-09-28T11:21:51.896Z,15.90
2022-09-28T11:24:45.396Z,16.00
2022-09-28T11:27:37.063Z,16.10
2022-09-28T11:30:31.596Z,16.10
2022-09-28T11:33:34.353Z,16.20
2022-09-28T11:37:15.834Z,16.30
2022-09-28T11:40:20.376Z,16.30
2022-09-28T11:43:16.629Z,16.20
2022-09-28T11:48:53.911Z,16.30
2022-09-28T11:51:47.602Z,16.30
2022-09-28T11:54:44.435Z,16.30
2022-09-28T11:57:39.301Z,16.30
2022-09-28T12:00:32.961Z,16.20
2022-09-28T12:03:28.306Z,16.10
2022-09-28T12:06:22.728Z,16.00
2022-09-28T12:09:18.441Z,16.00
2022-09-28T12:12:17.167Z,16.20
2022-09-28T12:15:16.644Z,16.10
2022-09-28T12:18:12.327Z,16.00
2022-09-28T12:21:10.289Z,16.10
2022-09-28T12:24:06.166Z,16.40
2022-09-28T12:27:00.731Z,16.70
2022-09-28T12:29:56.964Z,16.80
2022-09-28T12:32:51.870Z,16.80
2022-09-28T12:35:52.905Z,16.90
2022-09-28T12:39:14.636Z,17.10
2022-09-28T12:41:53.274Z,17.40
2022-09-28T12:44:57.215Z,17.60
2022-09-28T12:51:13.161Z,18.10
2022-09-28T12:54:13.571Z,18.30
2022-09-28T12:57:11.121Z,18.40
2022-09-28T13:00:06.783Z,18.60
2022-09-28T13:03:31.847Z,18.70
2022-09-28T13:06:40.588Z,18.60
2022-09-28T13:12:27.101Z,18.50
2022-09-28T13:15:32.372Z,18.40
2022-09-28T13:18:29.437Z,18.30
2022-09-28T13:21:28.392Z,18.30
2022-09-28T13:24:32.819Z,18.10
2022-09-28T13:27:21.387Z,18.00
2022-09-28T13:30:18.027Z,18.00
2022-09-28T13:33:13.479Z,18.10
2022-09-28T13:36:05.824Z,18.20
2022-09-28T13:38:59.509Z,18.20
2022-09-28T13:41:51.767Z,18.30
2022-09-28T13:48:15.385Z,18.80
2022-09-28T13:51:33.301Z,18.70
2022-09-28T13:54:37.050Z,18.60
2022-09-28T13:57:30.030Z,18.50
2022-09-28T14:00:24.998Z,18.40
2022-09-28T14:03:35.442Z,18.20
2022-09-28T14:06:31.635Z,18.20
2022-09-28T14:09:36.364Z,18.10
2022-09-28T14:12:55.259Z,18.10
2022-09-28T14:15:57.846Z,18.20
2022-09-28T14:18:51.804Z,18.30
2022-09-28T14:22:11.137Z,18.10
2022-09-28T14:25:11.318Z,18.20
2022-09-28T14:28:06.853Z,18.30
2022-09-28T14:30:59.700Z,18.40
2022-09-28T14:34:00.179Z,18.40
2022-09-28T14:37:09.809Z,18.30
2022-09-28T14:40:19.795Z,18.30
2022-09-28T14:46:45.865Z,17.80
2022-09-28T14:49:51.411Z,17.70
2022-09-28T14:52:49.131Z,17.50
2022-09-28T14:55:46.059Z,17.20
2022-09-28T14:58:40.174Z,17.10
2022-09-28T15:01:32.052Z,17.20
2022-09-28T15:04:26.170Z,17.20
2022-09-28T15:07:23.524Z,17.10
2022-09-28T15:10:32.234Z,16.90
2022-09-28T15:13:27.048Z,16.80
2022-09-28T15:16:21.958Z,16.60
2022-09-28T15:19:21.550Z,16.20
2022-09-28T15:22:18.791Z,15.90
2022-09-28T15:25:15.395Z,15.50
2022-09-28T15:28:17.275Z,15.10
2022-09-28T15:31:08.581Z,14.80
2022-09-28T15:34:17.678Z,14.70
2022-09-28T15:37:11.790Z,14.50
2022-09-28T15:40:04.436Z,14.60
2022-09-28T15:42:59.226Z,14.50
2022-09-28T15:45:53.849Z,14.60
2022-09-28T15:51:29.684Z,14.40
2022-09-28T15:54:25.057Z,14.40
2022-09-28T15:57:36.954Z,14.60
2022-09-28T16:00:31.513Z,14.70
2022-09-28T16:03:26.889Z,14.90
2022-09-28T16:08:58.880Z,15.00
2022-09-28T16:11:50.980Z,15.00
2022-09-28T16:14:43.035Z,15.00
2022-09-28T16:17:36.531Z,15.00
2022-09-28T16:20:32.211Z,15.00
2022-09-28T16:23:27.134Z,15.00
2022-09-28T16:26:20.939Z,15.00
2022-09-28T16:32:25.914Z,15.00
2022-09-28T16:35:23.773Z,15.00
2022-09-28T16:38:21.121Z,15.00
2022-09-28T16:41:13.536Z,14.90
2022-09-28T16:44:05.309Z,14.90
2022-09-28T16:47:00.437Z,14.90
2022-09-28T16:49:52.548Z,14.90
2022-09-28T16:53:01.778Z,14.90
2022-09-28T16:55:53.663Z,14.90
2022-09-28T16:58:46.521Z,14.90
2022-09-28T17:01:39.552Z,14.90
2022-09-28T17:04:31.196Z,14.90
2022-09-28T17:07:23.232Z,14.90
2022-09-28T17:10:21.457Z,14.90
2022-09-28T17:13:14.515Z,14.80
2022-09-28T17:16:10.571Z,14.80
2022-09-28T17:19:02.319Z,14.70
2022-09-28T17:21:54.607Z,14.70
2022-09-28T17:24:46.863Z,14.60
2022-09-28T17:27:39.621Z,14.60
2022-09-28T17:30:31.266Z,14.60
2022-09-28T17:33:22.510Z,14.50
2022-09-28T17:36:16.346Z,14.50
2022-09-28T17:39:12.618Z,14.50
2022-09-28T17:42:04.088Z,14.50
2022-09-28T17:47:36.377Z,14.50
2022-09-28T17:50:30.468Z,14.50
2022-09-28T17:53:22.266Z,14.50
2022-09-28T17:56:14.048Z,14.50
2022-09-28T17:59:07.606Z,14.50
2022-09-28T18:02:02.109Z,14.50
2022-09-28T18:04:52.822Z,14.50
2022-09-28T18:07:47.535Z,14.40
2022-09-28T18:10:41.478Z,14.50
2022-09-28T18:13:32.755Z,14.50
2022-09-28T18:16:24.312Z,14.40
2022-09-28T18:19:15.986Z,14.50
2022-09-28T18:22:07.519Z,14.50
2022-09-28T18:24:58.733Z,14.50
2022-09-28T18:27:50.282Z,14.50
2022-09-28T18:30:43.814Z,14.50
2022-09-28T18:33:35.312Z,14.60
2022-09-28T18:36:31.361Z,14.50
2022-09-28T18:39:24.132Z,14.50
2022-09-28T18:42:16.040Z,14.50
2022-09-28T18:45:11.783Z,14.50
2022-09-28T18:48:03.590Z,14.50
2022-09-28T18:50:54.966Z,14.50
2022-09-28T18:53:46.616Z,14.40
2022-09-28T18:56:38.456Z,14.50
2022-09-28T18:59:31.381Z,14.40
2022-09-28T19:02:22.806Z,14.40
2022-09-28T19:05:14.552Z,14.30
2022-09-28T19:08:06.509Z,14.40
2022-09-28T19:11:08.070Z,14.30
2022-09-28T19:13:59.672Z,14.20
2022-09-28T19:16:51.276Z,14.20
2022-09-28T19:19:45.991Z,14.30
2022-09-28T19:22:38.850Z,14.30
2022-09-28T19:25:30.534Z,14.30
2022-09-28T19:28:21.928Z,14.30
2022-09-28T19:31:14.398Z,14.30
2022-09-28T19:34:06.755Z,14.30
2022-09-28T19:37:00.838Z,14.30
2022-09-28T19:39:52.284Z,14.30
2022-09-28T19:42:43.659Z,14.30
2022-09-28T19:45:38.096Z,14.20
2022-09-28T19:48:31.193Z,14.20
2022-09-28T19:51:31.154Z,14.10
2022-09-28T19:54:25.672Z,14.20
2022-09-28T19:57:19.329Z,14.20
2022-09-28T20:00:13.638Z,14.20
2022-09-28T20:03:05.548Z,14.20
2022-09-28T20:06:02.741Z,14.30
2022-09-28T20:09:00.579Z,14.20
2022-09-28T20:11:53.423Z,14.20
2022-09-28T20:14:46.182Z,14.10
2022-09-28T20:17:40.673Z,14.20
2022-09-28T20:20:33.267Z,14.20
2022-09-28T20:23:30.329Z,14.30
2022-09-28T20:26:25.091Z,14.20
2022-09-28T20:29:19.805Z,14.20
2022-09-28T20:32:13.915Z,14.20
2022-09-28T20:35:08.766Z,14.20
2022-09-28T20:38:03.688Z,14.10
2022-09-28T20:40:56.468Z,14.20
2022-09-28T20:43:54.106Z,14.10
2022-09-28T20:46:47.270Z,14.20
2022-09-28T20:49:44.982Z,14.20
2022-09-28T20:52:42.108Z,14.20
2022-09-28T20:55:36.539Z,14.20
2022-09-28T20:58:37.473Z,14.10
2022-09-28T21:01:30.865Z,14.10
2022-09-28T21:04:54.156Z,14.10
2022-09-28T21:07:50.186Z,14.10
2022-09-28T21:10:49.922Z,14.10
2022-09-28T21:13:44.617Z,14.10
2022-09-28T21:16:37.521Z,14.10
2022-09-28T21:19:34.656Z,14.10
2022-09-28T21:22:29.947Z,14.10
2022-09-28T21:25:25.144Z,14.00
2022-09-28T21:30:55.807Z,14.00
2022-09-28T21:33:47.328Z,14.00
2022-09-28T21:36:38.918Z,14.10
2022-09-28T21:39:30.586Z,14.10
2022-09-28T21:42:40.836Z,14.10
2022-09-28T21:45:32.838Z,14.10
2022-09-28T21:51:04.590Z,13.90
2022-09-28T21:53:55.769Z,13.90
2022-09-28T21:56:47.136Z,13.90
2022-09-28T21:59:38.558Z,13.80
2022-09-28T22:02:31.640Z,13.80
2022-09-28T22:05:23.110Z,13.80
2022-09-28T22:08:25.492Z,13.80
2022-09-28T22:11:18.393Z,13.90
2022-09-28T22:14:11.438Z,13.90
2022-09-28T22:17:03.463Z,14.00
2022-09-28T22:19:55.053Z,14.00
2022-09-28T22:22:50.952Z,14.00
2022-09-28T22:25:42.336Z,13.90
2022-09-28T22:28:33.949Z,13.90
2022-09-28T22:31:28.048Z,14.00
2022-09-28T22:34:20.240Z,13.90
2022-09-28T22:37:11.945Z,14.00
2022-09-28T22:40:03.674Z,14.00
2022-09-28T22:42:55.029Z,14.00
2022-09-28T22:45:46.927Z,14.10
2022-09-28T22:51:19.470Z,14.00
2022-09-28T22:56:51.261Z,13.90
2022-09-28T22:59:42.758Z,13.80
2022-09-28T23:02:34.382Z,13.80
2022-09-28T23:05:26.038Z,13.80
2022-09-28T23:10:56.657Z,13.70
2022-09-28T23:13:52.253Z,13.70
2022-09-28T23:16:43.459Z,13.70
2022-09-28T23:19:34.925Z,13.70
2022-09-28T23:22:26.634Z,13.70
2022-09-28T23:27:57.136Z,13.80
2022-09-28T23:30:49.316Z,13.70
2022-09-28T23:33:40.693Z,13.60
2022-09-28T23:36:32.806Z,13.50
2022-09-28T23:39:24.129Z,13.50
2022-09-28T23:42:15.343Z,13.40
2022-09-28T23:45:08.402Z,13.30
2022-09-28T23:47:59.844Z,13.40
2022-09-28T23:50:51.022Z,13.50
2022-09-28T23:56:21.418Z,13.60
